Time;durP1;ratioP1;P1;durP2;ratioP2;P2;SDS_P1;SDS_P2;PMS_P1;PMS_P2;Temp;Humidity;BMP_temperature;BMP_pressure;BME280_temperature;BME280_humidity;BME280_pressure;Samples;Min_cycle;Max_cycle;Signal;HPM_P1;HPM_P2
2022/09/06 00:01:16;;;;;;;6.28;4.25;;;19.20;99.90;;;;;;5025578;28;20048;-73
2022/09/06 00:03:43;;;;;;;5.72;4.30;;;19.10;99.90;;;;;;5030488;28;20048;-71
2022/09/06 00:06:15;;;;;;;5.20;4.30;;;19.10;99.90;;;;;;5029704;28;20094;-72
2022/09/06 00:08:42;;;;;;;5.10;4.60;;;19.10;99.90;;;;;;5024751;28;20037;-73
2022/09/06 00:11:08;;;;;;;8.30;4.55;;;19.00;99.90;;;;;;5027932;28;20037;-73
2022/09/06 00:13:34;;;;;;;6.38;4.85;;;19.00;99.90;;;;;;5030125;28;20044;-74
2022/09/06 00:16:08;;;;;;;5.78;4.30;;;18.90;99.90;;;;;;5011441;28;20041;-70
2022/09/06 00:18:34;;;;;;;5.07;4.25;;;18.90;99.90;;;;;;5021289;28;20041;-73
2022/09/06 00:20:59;;;;;;;4.35;3.95;;;18.90;99.90;;;;;;5017057;28;20500;-73
2022/09/06 00:23:25;;;;;;;4.50;4.07;;;18.90;99.90;;;;;;5018839;28;20045;-71
2022/09/06 00:25:51;;;;;;;6.00;4.68;;;18.80;99.90;;;;;;5033827;28;20091;-70
2022/09/06 00:28:17;;;;;;;5.05;4.47;;;18.80;99.90;;;;;;5018082;28;20075;-70
2022/09/06 00:30:43;;;;;;;4.72;4.18;;;18.80;99.90;;;;;;5017152;28;20428;-71
2022/09/06 00:33:08;;;;;;;4.93;4.40;;;18.80;99.90;;;;;;5034254;28;20048;-72
2022/09/06 00:35:34;;;;;;;6.35;4.50;;;18.70;99.90;;;;;;5031307;28;20139;-71
2022/09/06 00:38:01;;;;;;;6.63;4.93;;;18.70;99.90;;;;;;5032439;28;20072;-71
2022/09/06 00:40:29;;;;;;;5.13;4.68;;;18.70;99.90;;;;;;5015538;28;20051;-71
2022/09/06 00:42:56;;;;;;;5.70;4.43;;;18.60;99.90;;;;;;5017483;28;20420;-73
2022/09/06 00:45:23;;;;;;;5.35;4.35;;;18.60;99.90;;;;;;5017386;28;20425;-71
2022/09/06 00:47:49;;;;;;;6.15;4.30;;;18.60;99.90;;;;;;5028568;28;20037;-71
2022/09/06 00:50:17;;;;;;;7.00;4.55;;;18.60;99.90;;;;;;5014395;28;20048;-72
2022/09/06 00:52:47;;;;;;;5.47;4.50;;;18.60;99.90;;;;;;5032567;28;20392;-73
2022/09/06 00:55:13;;;;;;;6.57;4.72;;;18.60;99.90;;;;;;5031431;28;20431;-73
2022/09/06 00:57:40;;;;;;;4.85;4.30;;;18.60;99.90;;;;;;5032231;28;20438;-71
2022/09/06 01:00:07;;;;;;;5.13;4.57;;;18.50;99.90;;;;;;5029320;28;20093;-74
2022/09/06 01:02:33;;;;;;;6.45;4.95;;;18.50;99.90;;;;;;5015281;28;20044;-72
2022/09/06 01:04:59;;;;;;;6.15;4.63;;;18.50;99.90;;;;;;5016490;28;20033;-71
2022/09/06 01:07:57;;;;;;;4.72;4.22;;;18.50;99.90;;;;;;5032422;28;20037;-73
2022/09/06 01:10:29;;;;;;;5.13;4.63;;;18.50;99.90;;;;;;5012342;28;20048;-71
2022/09/06 01:13:16;;;;;;;4.88;4.47;;;18.50;99.90;;;;;;5032366;28;20040;-72
2022/09/06 01:15:57;;;;;;;6.50;4.80;;;18.40;99.90;;;;;;5014321;28;20087;-73
2022/09/06 01:19:01;;;;;;;5.47;4.65;;;18.40;99.90;;;;;;5032943;28;20068;-71
2022/09/06 01:22:04;;;;;;;5.70;5.07;;;18.40;99.90;;;;;;5025860;28;20037;-70
2022/09/06 01:25:09;;;;;;;4.68;4.28;;;18.50;99.90;;;;;;5016097;28;20133;-72
2022/09/06 01:27:44;;;;;;;5.43;4.70;;;18.50;99.90;;;;;;5015691;28;20469;-70
2022/09/06 01:30:13;;;;;;;5.45;4.70;;;18.50;99.90;;;;;;5010928;28;20088;-70
2022/09/06 01:33:05;;;;;;;4.97;4.57;;;18.50;99.90;;;;;;5026990;28;20044;-73
2022/09/06 01:35:39;;;;;;;8.13;4.78;;;18.50;99.90;;;;;;5051219;28;20041;-70
2022/09/06 01:38:07;;;;;;;5.53;4.50;;;18.60;99.90;;;;;;5031702;28;20400;-72
2022/09/06 01:40:35;;;;;;;4.88;4.45;;;18.60;99.90;;;;;;5015275;28;20052;-72
2022/09/06 01:43:03;;;;;;;4.57;4.18;;;18.50;99.90;;;;;;5032143;28;20049;-72
2022/09/06 01:45:32;;;;;;;5.57;4.53;;;18.50;99.90;;;;;;5034211;28;20424;-73
2022/09/06 01:48:10;;;;;;;5.60;4.35;;;18.50;99.90;;;;;;5032964;28;20029;-72
2022/09/06 01:51:07;;;;;;;9.57;4.88;;;18.50;99.90;;;;;;5038119;28;20052;-72
2022/09/06 01:53:43;;;;;;;5.45;4.70;;;18.60;99.90;;;;;;5013592;28;20121;-71
2022/09/06 01:56:18;;;;;;;5.05;4.57;;;18.60;99.90;;;;;;5026481;28;20345;-71
2022/09/06 01:58:43;;;;;;;;;;;18.50;99.90;;;;;;5017064;28;20062;-72
2022/09/06 02:01:47;;;;;;;6.75;4.80;;;18.50;99.90;;;;;;5017644;28;20404;-72
2022/09/06 02:04:43;;;;;;;5.25;4.75;;;18.50;99.90;;;;;;4949842;28;20047;-71
2022/09/06 02:07:21;;;;;;;5.63;4.68;;;18.50;99.90;;;;;;4935535;28;20097;-72
2022/09/06 02:09:53;;;;;;;6.10;5.28;;;18.50;99.90;;;;;;5021071;28;20045;-71
2022/09/06 02:12:20;;;;;;;6.50;4.75;;;18.50;99.90;;;;;;5024352;28;20045;-69
2022/09/06 02:15:01;;;;;;;5.88;5.28;;;18.50;99.90;;;;;;5045415;28;20075;-72
2022/09/06 02:17:32;;;;;;;6.05;5.07;;;18.50;99.90;;;;;;5030109;28;20428;-71
2022/09/06 02:20:05;;;;;;;4.93;4.53;;;18.40;99.90;;;;;;5032550;28;20044;-72
2022/09/06 02:22:36;;;;;;;5.15;4.32;;;18.40;99.90;;;;;;5032584;28;20033;-70
2022/09/06 02:25:05;;;;;;;5.30;4.80;;;18.40;99.90;;;;;;5033756;28;20126;-71
2022/09/06 02:27:31;;;;;;;5.18;4.68;;;18.40;99.90;;;;;;5013603;28;20516;-70
2022/09/06 02:29:57;;;;;;;6.20;5.25;;;18.40;99.90;;;;;;5014973;28;20037;-73
2022/09/06 02:32:25;;;;;;;5.40;4.85;;;18.40;99.90;;;;;;5030961;28;20049;-72
2022/09/06 02:34:53;;;;;;;5.45;5.00;;;18.30;99.90;;;;;;5008602;28;20044;-72
2022/09/06 02:37:20;;;;;;;7.15;5.10;;;18.30;99.90;;;;;;5012881;28;20053;-70
2022/09/06 02:39:45;;;;;;;8.20;5.35;;;18.20;99.90;;;;;;5012635;28;20052;-72
2022/09/06 02:42:14;;;;;;;5.55;5.10;;;18.20;99.90;;;;;;5027039;28;20041;-72
2022/09/06 02:44:40;;;;;;;8.70;5.15;;;18.20;99.90;;;;;;5032896;28;20044;-70
2022/09/06 02:47:06;;;;;;;6.03;5.50;;;18.20;99.90;;;;;;5030779;28;20033;-72
2022/09/06 02:49:31;;;;;;;10.77;4.80;;;18.20;99.90;;;;;;5032825;28;20037;-72
2022/09/06 02:51:57;;;;;;;6.45;5.32;;;18.20;99.90;;;;;;5014938;28;20037;-72
2022/09/06 02:54:23;;;;;;;5.68;4.97;;;18.10;99.90;;;;;;5022132;28;20056;-72
2022/09/06 02:56:49;;;;;;;7.20;5.53;;;18.10;99.90;;;;;;5006115;28;20064;-71
2022/09/06 02:59:15;;;;;;;5.72;5.13;;;18.10;99.90;;;;;;5044098;28;20043;-73
2022/09/06 03:01:40;;;;;;;5.65;5.15;;;18.10;99.90;;;;;;5007029;28;20138;-70
2022/09/06 03:04:07;;;;;;;6.65;5.45;;;18.00;99.90;;;;;;5016114;28;20113;-72
2022/09/06 03:06:33;;;;;;;7.88;5.40;;;18.00;99.90;;;;;;5029120;28;20112;-71
2022/09/06 03:08:59;;;;;;;6.13;5.47;;;18.00;99.90;;;;;;5029739;28;20171;-71
2022/09/06 03:11:25;;;;;;;6.75;5.50;;;17.90;99.90;;;;;;5025489;28;20048;-71
2022/09/06 03:13:51;;;;;;;6.90;5.45;;;17.90;99.90;;;;;;5009591;28;20048;-72
2022/09/06 03:16:18;;;;;;;6.00;5.50;;;17.90;99.90;;;;;;5015429;28;20041;-71
2022/09/06 03:18:44;;;;;;;6.68;6.07;;;17.80;99.90;;;;;;5013222;28;20370;-70
2022/09/06 03:21:10;;;;;;;8.43;5.80;;;17.80;99.90;;;;;;5016180;28;20059;-72
2022/09/06 03:23:37;;;;;;;6.00;5.50;;;17.80;99.90;;;;;;5026802;28;20045;-72
2022/09/06 03:26:03;;;;;;;6.30;5.70;;;17.80;99.90;;;;;;5030535;28;20596;-72
2022/09/06 03:28:29;;;;;;;6.10;5.50;;;17.70;99.90;;;;;;5031510;28;20072;-72
2022/09/06 03:30:54;;;;;;;5.95;5.35;;;17.70;99.90;;;;;;4996433;28;20037;-71
2022/09/06 03:33:21;;;;;;;6.20;5.60;;;17.70;99.90;;;;;;5027282;28;20084;-72
2022/09/06 03:35:50;;;;;;;6.72;6.13;;;17.70;99.90;;;;;;5012020;28;20576;-72
2022/09/06 03:38:16;;;;;;;6.45;5.63;;;17.60;99.90;;;;;;5032310;28;20052;-72
2022/09/06 03:40:49;;;;;;;9.63;5.68;;;17.60;99.90;;;;;;5032271;28;20044;-70
2022/09/06 03:43:16;;;;;;;6.75;6.15;;;17.60;99.90;;;;;;5040604;28;20048;-72
2022/09/06 03:45:50;;;;;;;6.35;5.75;;;17.60;99.90;;;;;;5010762;28;20036;-70
2022/09/06 03:48:17;;;;;;;6.85;6.13;;;17.60;99.90;;;;;;5014844;28;20036;-72
2022/09/06 03:50:45;;;;;;;6.72;6.13;;;17.60;99.90;;;;;;5028464;28;20122;-74
2022/09/06 03:53:11;;;;;;;7.03;6.38;;;17.50;99.90;;;;;;5029387;28;20041;-73
2022/09/06 03:55:37;;;;;;;7.07;6.38;;;17.50;99.90;;;;;;5013327;28;20500;-72
2022/09/06 03:58:03;;;;;;;6.95;6.30;;;17.50;99.90;;;;;;5032448;28;20464;-71
2022/09/06 04:00:28;;;;;;;8.48;6.35;;;17.50;99.90;;;;;;5032152;28;20045;-71
2022/09/06 04:02:54;;;;;;;7.60;6.90;;;17.50;99.90;;;;;;5019731;28;20060;-73
2022/09/06 04:05:20;;;;;;;7.47;6.78;;;17.50;99.90;;;;;;5034030;28;20045;-71
2022/09/06 04:07:45;;;;;;;7.32;6.63;;;17.40;99.90;;;;;;5034163;28;20067;-72
2022/09/06 04:10:11;;;;;;;7.72;6.35;;;17.40;99.90;;;;;;5001580;28;20044;-72
2022/09/06 04:12:37;;;;;;;7.72;6.88;;;17.40;99.90;;;;;;5035022;28;20408;-71
2022/09/06 04:15:03;;;;;;;7.47;6.78;;;17.40;99.90;;;;;;5011978;28;20040;-70
2022/09/06 04:17:29;;;;;;;7.88;6.63;;;17.40;99.90;;;;;;5031536;28;20098;-74
2022/09/06 04:19:54;;;;;;;8.23;7.43;;;17.40;99.90;;;;;;5000675;28;20041;-72
2022/09/06 04:22:20;;;;;;;7.43;6.68;;;17.40;99.90;;;;;;5015468;28;20036;-73
2022/09/06 04:24:46;;;;;;;7.78;7.07;;;17.40;99.90;;;;;;5016181;28;20076;-72
2022/09/06 04:27:11;;;;;;;7.88;7.18;;;17.40;99.90;;;;;;5017997;28;20072;-73
2022/09/06 04:29:37;;;;;;;7.20;6.60;;;17.40;99.90;;;;;;5017532;28;20079;-71
2022/09/06 04:32:02;;;;;;;8.13;7.32;;;17.40;99.90;;;;;;5018238;28;20063;-70
2022/09/06 04:34:28;;;;;;;8.65;7.78;;;17.40;99.90;;;;;;5030944;28;20787;-73
2022/09/06 04:36:54;;;;;;;8.48;7.65;;;17.40;99.90;;;;;;5031831;28;20047;-70
2022/09/06 04:39:19;;;;;;;10.63;8.07;;;17.40;99.90;;;;;;5018441;28;20037;-70
2022/09/06 04:41:45;;;;;;;12.07;8.55;;;17.50;99.90;;;;;;4998584;28;20510;-72
2022/09/06 04:44:11;;;;;;;8.20;7.40;;;17.40;99.90;;;;;;5007704;28;20401;-71
2022/09/06 04:46:39;;;;;;;8.27;7.57;;;17.50;99.90;;;;;;5017673;28;20481;-71
2022/09/06 04:49:05;;;;;;;8.15;7.43;;;17.50;99.90;;;;;;5014570;28;20091;-73
2022/09/06 04:51:31;;;;;;;7.93;7.22;;;17.50;99.90;;;;;;5016111;28;20033;-71
2022/09/06 04:53:56;;;;;;;9.50;7.40;;;17.50;99.90;;;;;;5015415;28;20126;-71
2022/09/06 04:56:24;;;;;;;8.13;7.30;;;17.50;99.90;;;;;;5030688;28;20056;-72
2022/09/06 04:58:52;;;;;;;8.70;7.90;;;17.50;99.90;;;;;;5034070;28;20042;-70
2022/09/06 05:01:17;;;;;;;9.25;7.45;;;17.50;99.90;;;;;;5015986;28;20397;-72
2022/09/06 05:03:43;;;;;;;10.07;7.38;;;17.60;99.90;;;;;;5030671;28;20041;-70
2022/09/06 05:06:20;;;;;;;8.70;7.80;;;17.60;99.90;;;;;;5028499;28;20450;-72
2022/09/06 05:08:47;;;;;;;10.52;7.97;;;17.60;99.90;;;;;;5030663;28;20379;-72
2022/09/06 05:11:13;;;;;;;8.40;7.60;;;17.60;99.90;;;;;;5015841;28;20041;-71
2022/09/06 05:13:39;;;;;;;10.00;7.50;;;17.60;99.90;;;;;;5034513;28;20141;-72
2022/09/06 05:16:07;;;;;;;8.38;7.57;;;17.60;99.90;;;;;;4995091;28;20162;-71
2022/09/06 05:18:33;;;;;;;9.73;7.50;;;17.60;99.90;;;;;;5026210;28;20048;-71
2022/09/06 05:20:59;;;;;;;8.05;7.05;;;17.60;99.90;;;;;;5043161;28;20070;-72
2022/09/06 05:23:26;;;;;;;8.10;7.05;;;17.50;99.90;;;;;;5034302;28;20533;-72
2022/09/06 05:25:52;;;;;;;9.38;7.47;;;17.50;99.90;;;;;;5031713;28;20111;-71
2022/09/06 05:28:18;;;;;;;9.88;7.80;;;17.50;99.90;;;;;;5034653;28;20049;-73
2022/09/06 05:30:44;;;;;;;9.32;8.10;;;17.50;99.90;;;;;;5011520;28;20556;-71
2022/09/06 05:33:17;;;;;;;9.55;8.60;;;17.60;99.90;;;;;;5033751;28;20118;-71
2022/09/06 05:35:43;;;;;;;8.73;7.93;;;17.50;99.90;;;;;;5032596;28;20485;-70
2022/09/06 05:38:08;;;;;;;9.43;8.40;;;17.50;99.90;;;;;;5030417;28;20056;-71
2022/09/06 05:40:34;;;;;;;8.70;7.90;;;17.60;99.90;;;;;;5012400;28;20041;-72
2022/09/06 05:43:00;;;;;;;9.32;8.43;;;17.60;99.90;;;;;;5026103;28;20123;-72
2022/09/06 05:45:25;;;;;;;9.50;8.60;;;17.60;99.90;;;;;;5034322;28;20076;-72
2022/09/06 05:47:51;;;;;;;9.25;8.35;;;17.60;99.90;;;;;;5014745;28;20037;-71
2022/09/06 05:50:17;;;;;;;9.35;8.45;;;17.60;99.90;;;;;;5016525;28;20037;-73
2022/09/06 05:52:42;;;;;;;9.93;8.80;;;17.60;99.90;;;;;;5030339;28;20056;-73
2022/09/06 05:55:08;;;;;;;9.32;8.50;;;17.60;99.90;;;;;;5031675;28;20055;-73
2022/09/06 05:57:34;;;;;;;9.57;8.68;;;17.60;99.90;;;;;;5028997;28;20099;-72
2022/09/06 06:00:00;;;;;;;10.40;9.30;;;17.60;99.90;;;;;;5010371;28;20090;-72
2022/09/06 06:02:25;;;;;;;10.73;8.93;;;17.60;99.90;;;;;;5006454;28;20045;-71
2022/09/06 06:04:53;;;;;;;10.52;9.60;;;17.70;99.90;;;;;;5000743;28;20040;-71
2022/09/06 06:07:19;;;;;;;10.70;9.32;;;17.60;99.90;;;;;;5036402;28;20394;-72
2022/09/06 06:09:44;;;;;;;10.60;9.60;;;17.70;99.90;;;;;;5017252;28;20041;-73
2022/09/06 06:12:10;;;;;;;9.82;8.90;;;17.70;99.90;;;;;;5014675;28;20041;-72
2022/09/06 06:14:36;;;;;;;11.10;10.00;;;17.70;99.90;;;;;;5031135;28;20140;-72
2022/09/06 06:17:01;;;;;;;10.75;9.75;;;17.70;99.90;;;;;;5015510;28;20413;-73
2022/09/06 06:19:27;;;;;;;9.98;9.07;;;17.70;99.90;;;;;;5033582;28;20037;-71
2022/09/06 06:21:54;;;;;;;10.60;9.68;;;17.70;99.90;;;;;;5013973;28;20156;-73
2022/09/06 06:24:20;;;;;;;11.50;10.38;;;17.70;99.90;;;;;;5029069;28;20458;-74
2022/09/06 06:26:46;;;;;;;11.82;9.18;;;17.80;99.90;;;;;;5031147;28;20083;-74
2022/09/06 06:29:13;;;;;;;11.60;9.70;;;17.70;99.90;;;;;;4999780;28;20405;-71
2022/09/06 06:31:39;;;;;;;10.40;9.40;;;17.80;99.90;;;;;;5008981;28;20065;-70
2022/09/06 06:34:05;;;;;;;10.50;9.50;;;17.80;99.90;;;;;;5010548;28;20238;-73
2022/09/06 06:36:33;;;;;;;10.60;9.57;;;17.90;99.90;;;;;;5022989;28;20045;-73
2022/09/06 06:39:00;;;;;;;10.50;9.52;;;18.00;99.90;;;;;;4998549;28;20108;-71
2022/09/06 06:41:31;;;;;;;12.68;9.57;;;18.00;99.90;;;;;;5018881;28;20037;-71
2022/09/06 06:44:02;;;;;;;11.05;9.95;;;18.10;99.90;;;;;;5009435;28;20164;-73
2022/09/06 06:46:36;;;;;;;11.52;10.35;;;18.10;99.90;;;;;;5013269;28;20433;-72
2022/09/06 06:49:02;;;;;;;12.07;10.18;;;18.10;99.90;;;;;;5023850;28;20041;-71
2022/09/06 06:51:30;;;;;;;12.00;9.77;;;18.20;99.90;;;;;;5013125;28;20041;-77
2022/09/06 06:53:57;;;;;;;12.82;10.38;;;18.10;99.90;;;;;;5006744;28;20535;-72
2022/09/06 06:56:27;;;;;;;10.82;9.82;;;18.20;99.90;;;;;;5013434;28;20067;-76
2022/09/06 06:58:56;;;;;;;11.60;10.50;;;18.20;99.90;;;;;;5003059;28;20045;-74
2022/09/06 07:01:22;;;;;;;11.38;10.40;;;18.20;99.90;;;;;;5007182;28;20051;-72
2022/09/06 07:03:49;;;;;;;11.43;10.32;;;18.20;99.90;;;;;;5008493;28;20657;-72
2022/09/06 07:06:15;;;;;;;12.60;10.60;;;18.30;99.90;;;;;;5012452;28;20477;-72
2022/09/06 07:08:41;;;;;;;11.77;10.68;;;18.20;99.90;;;;;;5028163;28;20037;-74
2022/09/06 07:11:09;;;;;;;12.45;11.27;;;18.30;99.90;;;;;;5013096;28;20505;-72
2022/09/06 07:13:35;;;;;;;14.73;10.95;;;18.30;99.90;;;;;;5010950;28;20041;-72
2022/09/06 07:16:10;;;;;;;12.45;11.32;;;18.30;99.90;;;;;;5008135;28;20041;-72
2022/09/06 07:18:42;;;;;;;13.00;11.73;;;18.40;99.90;;;;;;5006480;28;20058;-71
2022/09/06 07:21:13;;;;;;;12.77;11.35;;;18.40;99.90;;;;;;5005918;28;20362;-73
2022/09/06 07:23:39;;;;;;;11.98;10.70;;;18.40;99.90;;;;;;4995520;28;20045;-70
2022/09/06 07:26:05;;;;;;;12.38;11.23;;;18.50;99.90;;;;;;5011663;28;20033;-71
2022/09/06 07:28:30;;;;;;;13.35;11.02;;;18.50;99.90;;;;;;5020677;28;20087;-72
2022/09/06 07:30:57;;;;;;;14.05;10.82;;;18.60;99.90;;;;;;5015354;28;20401;-72
2022/09/06 07:33:23;;;;;;;11.95;10.65;;;18.60;99.90;;;;;;5010193;28;20044;-71
2022/09/06 07:36:00;;;;;;;10.90;9.90;;;18.70;99.90;;;;;;5007905;28;20041;-72
2022/09/06 07:38:27;;;;;;;12.90;10.30;;;18.80;99.90;;;;;;5030016;28;20037;-71
2022/09/06 07:40:59;;;;;;;12.82;11.63;;;18.80;99.90;;;;;;5031906;28;20087;-72
2022/09/06 07:43:26;;;;;;;12.57;11.18;;;18.90;99.90;;;;;;5030371;28;20041;-71
2022/09/06 07:46:07;;;;;;;11.88;10.73;;;19.00;99.90;;;;;;5031840;28;20388;-71
2022/09/06 07:48:35;;;;;;;12.32;11.10;;;19.20;99.90;;;;;;5015180;28;20041;-69
2022/09/06 07:51:08;;;;;;;12.00;10.77;;;19.40;99.90;;;;;;5030731;28;20482;-70
2022/09/06 07:53:35;;;;;;;12.10;10.93;;;19.60;99.90;;;;;;5032344;28;20431;-75
2022/09/06 07:56:01;;;;;;;13.00;11.82;;;19.80;99.90;;;;;;5030655;28;20132;-70
2022/09/06 07:58:29;;;;;;;12.07;10.98;;;20.00;99.90;;;;;;5030994;28;20435;-72
2022/09/06 08:01:39;;;;;;;12.13;11.02;;;20.20;99.90;;;;;;5014337;28;21000;-69
2022/09/06 08:04:11;;;;;;;11.68;10.57;;;20.20;99.90;;;;;;5027029;28;20088;-73
2022/09/06 08:06:42;;;;;;;10.43;9.43;;;20.30;99.90;;;;;;5005065;28;20052;-73
2022/09/06 08:09:09;;;;;;;11.75;10.65;;;20.20;99.90;;;;;;4994694;28;20053;-72
2022/09/06 08:11:37;;;;;;;11.70;10.55;;;20.10;99.90;;;;;;4995521;28;20124;-72
2022/09/06 08:14:05;;;;;;;14.00;10.55;;;20.20;99.90;;;;;;4995135;28;20098;-70
2022/09/06 08:16:32;;;;;;;11.25;10.13;;;20.20;99.90;;;;;;4994875;28;20102;-71
2022/09/06 08:19:00;;;;;;;12.38;10.98;;;20.10;99.90;;;;;;5010781;28;20048;-70
2022/09/06 08:21:28;;;;;;;16.02;10.77;;;20.10;99.90;;;;;;4995314;28;20063;-70
2022/09/06 08:23:57;;;;;;;13.43;11.55;;;20.20;99.90;;;;;;4994463;28;20042;-72
2022/09/06 08:26:24;;;;;;;12.23;11.10;;;20.30;99.90;;;;;;5011370;28;20068;-73
2022/09/06 08:28:54;;;;;;;12.73;11.48;;;20.40;99.90;;;;;;5010364;28;20458;-71
2022/09/06 08:31:20;;;;;;;11.63;10.63;;;20.50;99.90;;;;;;5011228;28;20548;-72
2022/09/06 08:33:46;;;;;;;12.40;11.30;;;20.60;99.90;;;;;;4994822;28;20597;-74
2022/09/06 08:36:13;;;;;;;11.43;10.32;;;20.70;99.90;;;;;;5010685;28;20042;-73
2022/09/06 08:38:39;;;;;;;13.63;11.65;;;20.80;99.90;;;;;;5011316;28;20049;-74
2022/09/06 08:41:31;;;;;;;11.38;10.27;;;20.90;99.90;;;;;;5025062;28;20396;-73
2022/09/06 08:44:07;;;;;;;10.48;9.48;;;20.90;99.90;;;;;;5018060;28;20052;-73
2022/09/06 08:46:37;;;;;;;11.85;10.38;;;20.80;99.90;;;;;;5035254;28;20127;-73
2022/09/06 08:49:04;;;;;;;11.70;10.50;;;20.80;99.90;;;;;;5018789;28;20370;-71
2022/09/06 08:51:30;;;;;;;11.73;10.60;;;21.00;99.90;;;;;;5019137;28;20048;-74
2022/09/06 08:54:03;;;;;;;10.88;9.88;;;21.10;99.90;;;;;;5018650;28;20080;-74
2022/09/06 08:56:37;;;;;;;14.32;10.93;;;21.20;99.90;;;;;;5018923;28;20190;-70
2022/09/06 08:59:12;;;;;;;11.20;10.20;;;21.40;99.90;;;;;;5035152;28;20052;-73
2022/09/06 09:01:53;;;;;;;12.25;10.95;;;21.60;99.90;;;;;;5035758;28;20056;-71
2022/09/06 09:04:25;;;;;;;12.25;10.93;;;21.60;99.90;;;;;;5035059;28;20044;-71
2022/09/06 09:06:57;;;;;;;12.70;11.43;;;21.70;99.90;;;;;;5018687;28;20040;-74
2022/09/06 09:09:23;;;;;;;11.43;10.43;;;21.70;99.90;;;;;;5035472;28;20518;-71
2022/09/06 09:11:50;;;;;;;12.57;11.20;;;21.90;99.90;;;;;;5018769;28;20075;-71
2022/09/06 09:14:21;;;;;;;12.32;11.02;;;21.90;99.90;;;;;;5018276;28;20559;-76
2022/09/06 09:16:51;;;;;;;12.48;10.52;;;22.00;99.90;;;;;;5018576;28;20039;-75
2022/09/06 09:19:17;;;;;;;12.40;10.77;;;22.00;99.90;;;;;;5035496;28;20040;-74
2022/09/06 09:21:43;;;;;;;12.40;10.82;;;22.00;99.90;;;;;;5034798;28;20052;-71
2022/09/06 09:24:11;;;;;;;14.13;10.57;;;22.10;99.90;;;;;;5034712;28;20061;-75
2022/09/06 09:26:53;;;;;;;12.30;11.00;;;22.30;99.90;;;;;;5018458;28;20045;-73
2022/09/06 09:29:18;;;;;;;11.52;10.35;;;22.40;99.90;;;;;;5034682;28;20061;-73
2022/09/06 09:31:51;;;;;;;11.40;10.30;;;22.50;99.90;;;;;;5034936;28;20041;-70
2022/09/06 09:34:28;;;;;;;12.50;10.35;;;23.00;99.90;;;;;;5034409;28;20037;-73
2022/09/06 09:37:19;;;;;;;11.23;10.13;;;22.90;99.90;;;;;;5034237;28;20127;-75
2022/09/06 09:39:47;;;;;;;11.82;10.18;;;22.70;99.90;;;;;;5034380;28;20033;-73
2022/09/06 09:42:23;;;;;;;12.35;11.15;;;22.60;99.90;;;;;;5034090;28;20080;-73
2022/09/06 09:44:49;;;;;;;11.07;9.98;;;23.00;99.90;;;;;;5034515;28;20049;-75
2022/09/06 09:47:32;;;;;;;9.27;8.30;;;23.20;99.90;;;;;;5034295;28;20086;-75
2022/09/06 09:49:58;;;;;;;10.35;9.45;;;23.50;99.90;;;;;;5017960;28;20106;-74
2022/09/06 09:52:28;;;;;;;10.23;9.13;;;23.50;99.90;;;;;;5017733;28;20048;-74
2022/09/06 09:55:03;;;;;;;13.52;9.88;;;23.90;99.90;;;;;;5034204;28;20083;-72
2022/09/06 09:57:41;;;;;;;10.27;9.30;;;23.80;99.90;;;;;;5018321;28;20037;-72
2022/09/06 10:00:11;;;;;;;9.52;8.65;;;23.90;99.90;;;;;;5034140;28;20057;-71
2022/09/06 10:02:39;;;;;;;10.63;9.10;;;23.80;99.90;;;;;;5033929;28;20128;-73
2022/09/06 10:05:19;;;;;;;10.43;8.65;;;23.90;99.90;;;;;;5016793;28;20493;-76
2022/09/06 10:07:52;;;;;;;10.15;9.15;;;24.40;99.90;;;;;;5017643;28;20044;-75
2022/09/06 10:10:22;;;;;;;10.07;8.60;;;24.60;99.90;;;;;;5033513;28;20069;-74
2022/09/06 10:13:04;;;;;;;12.52;9.73;;;24.70;99.90;;;;;;5033777;28;20488;-73
2022/09/06 10:15:38;;;;;;;8.30;7.60;;;24.50;99.90;;;;;;5033713;28;20041;-75
2022/09/06 10:18:03;;;;;;;12.05;8.65;;;24.10;99.90;;;;;;5016938;28;20037;-75
2022/09/06 10:20:41;;;;;;;8.18;7.40;;;24.40;99.90;;;;;;5017629;28;20033;-72
2022/09/06 10:23:23;;;;;;;8.85;7.95;;;24.40;99.90;;;;;;5033437;28;20131;-74
2022/09/06 10:26:05;;;;;;;8.32;7.63;;;24.40;99.90;;;;;;5033730;28;20128;-75
2022/09/06 10:28:42;;;;;;;9.80;8.82;;;24.20;99.90;;;;;;5033438;28;20053;-76
2022/09/06 10:31:27;;;;;;;9.13;8.23;;;24.40;99.90;;;;;;5016838;28;20601;-77
2022/09/06 10:34:02;;;;;;;;;;;24.50;99.90;;;;;;5034292;28;20040;-71
2022/09/06 10:36:33;;;;;;;;;;;24.50;99.90;;;;;;5033906;28;20272;-73
2022/09/06 10:39:24;;;;;;;9.32;8.50;;;24.20;99.90;;;;;;5033237;28;19962;-74
2022/09/06 10:42:12;;;;;;;9.32;8.50;;;24.50;99.90;;;;;;5033140;28;20072;-75
2022/09/06 10:45:02;;;;;;;10.25;9.25;;;24.40;99.90;;;;;;5016762;28;20045;-77
2022/09/06 10:47:51;;;;;;;8.98;8.07;;;24.40;99.90;;;;;;5032827;28;20482;-73
2022/09/06 10:50:18;;;;;;;9.27;8.48;;;24.40;99.90;;;;;;5015719;28;20033;-74
2022/09/06 10:52:47;;;;;;;9.73;8.73;;;24.40;99.90;;;;;;5015976;28;20041;-74
2022/09/06 10:55:16;;;;;;;10.50;8.15;;;24.60;99.90;;;;;;5016111;28;20049;-75
2022/09/06 10:57:47;;;;;;;9.80;8.45;;;24.80;99.90;;;;;;5033211;28;20059;-74
2022/09/06 11:00:15;;;;;;;9.43;8.45;;;25.00;99.90;;;;;;5015962;28;20049;-74
2022/09/06 11:03:08;;;;;;;9.88;8.80;;;24.80;99.90;;;;;;5032933;28;20110;-75
2022/09/06 11:05:40;;;;;;;8.77;7.97;;;24.80;99.90;;;;;;5032483;28;20043;-75
2022/09/06 11:08:23;;;;;;;7.93;7.22;;;24.70;99.90;;;;;;5016243;28;20135;-72
2022/09/06 11:10:54;;;;;;;9.50;8.60;;;24.80;99.90;;;;;;5016417;28;20076;-75
2022/09/06 11:13:22;;;;;;;8.25;7.55;;;24.80;99.90;;;;;;5032506;28;20094;-71
2022/09/06 11:16:14;;;;;;;8.50;7.80;;;25.10;99.90;;;;;;5032795;28;20096;-75
2022/09/06 11:19:07;;;;;;;8.80;8.00;;;25.40;99.90;;;;;;5016790;28;20459;-73
2022/09/06 11:21:59;;;;;;;9.07;8.27;;;25.60;99.90;;;;;;5032660;28;20500;-71
2022/09/06 11:24:47;;;;;;;7.97;7.18;;;25.50;99.90;;;;;;5032170;28;20144;-73
2022/09/06 11:27:33;;;;;;;7.47;6.07;;;25.50;99.90;;;;;;5015742;28;20045;-72
2022/09/06 11:30:02;;;;;;;6.93;6.22;;;25.60;99.90;;;;;;5032822;28;20053;-73
2022/09/06 11:32:38;;;;;;;6.28;5.68;;;25.70;99.90;;;;;;5032705;28;20107;-75
2022/09/06 11:35:19;;;;;;;9.00;6.72;;;25.70;99.90;;;;;;5032170;28;20045;-74
2022/09/06 11:37:48;;;;;;;6.63;4.97;;;25.60;99.90;;;;;;5032729;28;20128;-71
2022/09/06 11:40:14;;;;;;;6.90;6.30;;;25.50;99.90;;;;;;5015651;28;20384;-74
2022/09/06 11:42:46;;;;;;;9.70;6.65;;;25.30;99.90;;;;;;5016130;28;20041;-70
2022/09/06 11:45:20;;;;;;;6.05;5.40;;;25.10;99.90;;;;;;5032527;28;20123;-72
2022/09/06 11:47:52;;;;;;;6.00;5.50;;;25.10;99.90;;;;;;5032838;28;20041;-75
2022/09/06 11:50:45;;;;;;;6.63;6.00;;;25.30;99.90;;;;;;5015879;28;20663;-74
2022/09/06 11:53:16;;;;;;;9.88;5.95;;;25.30;99.90;;;;;;5015378;28;20049;-72
2022/09/06 11:55:48;;;;;;;6.65;5.95;;;25.50;99.90;;;;;;5031961;28;20037;-75
2022/09/06 11:58:17;;;;;;;6.32;5.72;;;25.40;99.90;;;;;;5015679;28;20040;-74
2022/09/06 12:01:11;;;;;;;6.35;5.85;;;25.20;99.90;;;;;;5016136;28;20041;-72
2022/09/06 12:03:46;;;;;;;6.57;5.82;;;24.90;99.90;;;;;;5031927;28;20037;-74
2022/09/06 12:06:39;;;;;;;6.95;6.25;;;25.30;99.90;;;;;;5031760;28;20075;-73
2022/09/06 12:09:33;;;;;;;6.05;5.40;;;25.40;99.90;;;;;;5032163;28;20470;-73
2022/09/06 12:12:00;;;;;;;6.78;5.85;;;25.30;99.90;;;;;;5028926;28;20044;-73
2022/09/06 12:14:30;;;;;;;6.43;5.47;;;25.50;99.90;;;;;;5031453;28;20042;-74
2022/09/06 12:16:59;;;;;;;6.80;6.20;;;25.40;99.90;;;;;;5035864;28;20072;-76
2022/09/06 12:19:40;;;;;;;7.13;5.95;;;25.60;99.90;;;;;;5036177;28;20040;-74
2022/09/06 12:22:40;;;;;;;6.60;6.00;;;25.50;99.90;;;;;;5035869;28;20438;-73
2022/09/06 12:25:14;;;;;;;6.05;5.50;;;25.50;99.90;;;;;;5019446;28;20052;-73
2022/09/06 12:27:59;;;;;;;9.07;6.63;;;25.50;99.90;;;;;;5019351;28;20076;-72
2022/09/06 12:30:37;;;;;;;6.93;6.32;;;25.50;99.90;;;;;;5018919;28;20055;-70
2022/09/06 12:33:38;;;;;;;7.28;6.57;;;25.30;99.90;;;;;;5035662;28;20080;-74
2022/09/06 12:36:45;;;;;;;6.63;6.00;;;25.30;99.90;;;;;;5035769;28;20051;-71
2022/09/06 12:39:11;;;;;;;6.35;5.75;;;25.50;99.90;;;;;;5006369;28;20056;-72
2022/09/06 12:41:43;;;;;;;6.28;5.72;;;25.50;99.90;;;;;;5019252;28;20071;-72
2022/09/06 12:44:10;;;;;;;6.78;6.13;;;25.60;99.90;;;;;;5035056;28;20136;-72
2022/09/06 12:46:38;;;;;;;8.07;6.30;;;25.40;99.90;;;;;;5035403;28;20119;-76
2022/09/06 12:49:10;;;;;;;6.57;5.97;;;25.50;99.90;;;;;;5019182;28;20041;-73
2022/09/06 12:51:38;;;;;;;6.40;5.90;;;25.50;99.90;;;;;;5018628;28;20072;-72
2022/09/06 12:54:25;;;;;;;6.30;5.75;;;25.50;99.90;;;;;;5035115;28;20037;-73
2022/09/06 12:56:52;;;;;;;8.20;6.30;;;25.60;99.90;;;;;;5018812;28;20041;-75
2022/09/06 12:59:19;;;;;;;7.57;6.82;;;25.60;99.90;;;;;;5035044;28;20146;-75
2022/09/06 13:02:15;;;;;;;7.60;6.70;;;25.40;99.90;;;;;;5035625;28;20412;-74
2022/09/06 13:04:41;;;;;;;7.65;6.93;;;25.50;99.90;;;;;;5018545;28;20525;-75